Time;durP1;ratioP1;P1;durP2;ratioP2;P2;SDS_P1;SDS_P2;PMS_P1;PMS_P2;Temp;Humidity;BMP_temperature;BMP_pressure;BME280_temperature;BME280_humidity;BME280_pressure;Samples;Min_cycle;Max_cycle;Signal;HPM_P1;HPM_P2
2023/12/10 00:02:20;;;;;;;29.88;5.15;;;8.70;99.90;;;;;;5076417;28;20488;-71
2023/12/10 00:04:46;;;;;;;26.65;4.82;;;8.70;99.90;;;;;;5074532;28;20528;-71
2023/12/10 00:07:12;;;;;;;37.38;6.20;;;8.70;99.90;;;;;;5056878;28;20064;-72
2023/12/10 00:09:37;;;;;;;37.80;5.38;;;8.60;99.90;;;;;;5057986;28;20036;-71
2023/12/10 00:12:03;;;;;;;28.95;4.47;;;8.60;99.90;;;;;;5037982;28;20090;-71
2023/12/10 00:14:29;;;;;;;30.33;5.00;;;8.60;99.90;;;;;;5070272;28;20037;-71
2023/12/10 00:16:54;;;;;;;28.40;5.57;;;8.60;99.90;;;;;;5072156;28;20044;-72
2023/12/10 00:19:20;;;;;;;33.00;5.60;;;8.60;99.90;;;;;;5045360;28;20056;-72
2023/12/10 00:21:46;;;;;;;28.50;4.72;;;8.80;99.90;;;;;;5076010;28;20041;-72
2023/12/10 00:24:12;;;;;;;29.42;5.07;;;8.60;99.90;;;;;;5064179;28;20116;-71
2023/12/10 00:26:37;;;;;;;33.25;6.40;;;8.50;99.90;;;;;;5055232;28;20170;-71
2023/12/10 00:29:03;;;;;;;32.08;5.60;;;8.60;99.90;;;;;;5068430;28;20044;-71
2023/12/10 00:31:30;;;;;;;28.58;4.82;;;8.50;99.90;;;;;;5054339;28;20490;-70
2023/12/10 00:33:56;;;;;;;28.38;4.82;;;8.60;99.90;;;;;;5057196;28;20094;-71
2023/12/10 00:36:25;;;;;;;37.72;6.97;;;8.60;99.90;;;;;;5068424;28;20045;-71
2023/12/10 00:38:50;;;;;;;27.73;5.13;;;8.70;99.90;;;;;;5064610;28;20559;-71
2023/12/10 00:41:16;;;;;;;25.33;5.32;;;8.70;99.90;;;;;;5064512;28;20037;-72
2023/12/10 00:43:42;;;;;;;20.67;4.55;;;8.70;99.90;;;;;;5047289;28;20546;-71
2023/12/10 00:46:09;;;;;;;29.52;4.63;;;8.70;99.90;;;;;;5066698;28;20594;-71
2023/12/10 00:48:37;;;;;;;23.05;4.38;;;8.70;99.90;;;;;;5047700;28;20123;-71
2023/12/10 00:51:03;;;;;;;24.77;4.95;;;8.70;99.90;;;;;;5044908;28;20066;-72
2023/12/10 00:53:28;;;;;;;24.85;4.32;;;8.60;99.90;;;;;;5072259;28;20037;-72
2023/12/10 00:55:54;;;;;;;26.40;4.63;;;8.60;99.90;;;;;;5037385;28;20041;-71
2023/12/10 00:58:20;;;;;;;28.83;4.50;;;8.50;99.90;;;;;;5056757;28;20044;-71
2023/12/10 01:00:46;;;;;;;20.63;4.25;;;8.50;99.90;;;;;;5045727;28;20512;-71
2023/12/10 01:03:11;;;;;;;20.95;4.55;;;8.40;99.90;;;;;;5027817;28;20048;-71
2023/12/10 01:05:37;;;;;;;30.13;4.40;;;8.40;99.90;;;;;;5062875;28;20041;-70
2023/12/10 01:08:03;;;;;;;26.45;4.40;;;8.40;99.90;;;;;;5064710;28;20043;-70
2023/12/10 01:10:29;;;;;;;20.88;3.78;;;8.30;99.90;;;;;;5052601;28;20036;-71
2023/12/10 01:12:55;;;;;;;25.67;4.13;;;8.30;99.90;;;;;;5062748;28;20119;-71
2023/12/10 01:15:31;;;;;;;29.70;5.00;;;8.30;99.90;;;;;;5065843;28;20040;-71
2023/12/10 01:18:03;;;;;;;24.42;4.38;;;8.30;99.90;;;;;;5053525;28;20055;-70
2023/12/10 01:20:32;;;;;;;23.15;4.35;;;8.20;99.90;;;;;;5064709;28;20067;-70
2023/12/10 01:22:58;;;;;;;28.08;5.38;;;8.20;99.90;;;;;;5028736;28;20520;-70
2023/12/10 01:25:25;;;;;;;27.27;4.25;;;8.20;99.90;;;;;;5047445;28;20135;-71
2023/12/10 01:27:52;;;;;;;25.52;4.13;;;8.10;99.90;;;;;;5044889;28;20098;-71
2023/12/10 01:30:18;;;;;;;23.48;4.07;;;8.40;99.90;;;;;;5060335;28;20048;-71
2023/12/10 01:32:49;;;;;;;27.10;4.38;;;8.80;99.90;;;;;;5070725;28;20045;-71
2023/12/10 01:35:14;;;;;;;25.90;4.32;;;8.20;99.90;;;;;;5068099;28;20040;-70
2023/12/10 01:37:40;;;;;;;28.63;4.60;;;8.10;99.90;;;;;;5059439;28;20041;-70
2023/12/10 01:40:08;;;;;;;24.08;4.40;;;8.20;99.90;;;;;;5057682;28;20047;-70
2023/12/10 01:42:34;;;;;;;26.50;4.95;;;8.20;99.90;;;;;;5052807;28;20431;-70
2023/12/10 01:45:00;;;;;;;30.95;4.68;;;8.20;99.90;;;;;;5052152;28;20651;-70
2023/12/10 01:47:29;;;;;;;23.23;4.50;;;8.10;99.90;;;;;;5070454;28;20040;-70
2023/12/10 01:49:55;;;;;;;24.27;3.85;;;8.20;99.90;;;;;;5074022;28;20044;-70
2023/12/10 01:52:23;;;;;;;26.50;4.32;;;8.20;99.90;;;;;;5048296;28;20040;-70
2023/12/10 01:54:52;;;;;;;27.65;4.78;;;8.20;99.90;;;;;;5053379;28;20045;-71
2023/12/10 01:57:18;;;;;;;31.40;5.05;;;8.20;99.90;;;;;;5056410;28;20082;-71
2023/12/10 01:59:44;;;;;;;31.52;5.30;;;8.10;99.90;;;;;;5056680;28;20049;-71
2023/12/10 02:02:12;;;;;;;26.38;4.78;;;8.10;99.90;;;;;;5057135;28;20051;-71
2023/12/10 02:04:41;;;;;;;24.63;4.32;;;8.20;99.90;;;;;;5044145;28;20037;-71
2023/12/10 02:07:07;;;;;;;34.63;4.88;;;8.60;99.90;;;;;;5046259;28;20043;-71
2023/12/10 02:09:35;;;;;;;32.72;4.70;;;8.10;99.90;;;;;;5057219;28;20409;-71
2023/12/10 02:12:01;;;;;;;24.58;4.75;;;8.10;99.90;;;;;;5054666;28;20071;-71
2023/12/10 02:14:27;;;;;;;28.10;5.13;;;8.10;99.90;;;;;;5071488;28;20166;-70
2023/12/10 02:16:55;;;;;;;32.15;4.70;;;8.10;99.90;;;;;;5055955;28;20307;-71
2023/12/10 02:19:21;;;;;;;25.98;5.07;;;8.10;99.90;;;;;;5070946;28;20029;-71
2023/12/10 02:21:51;;;;;;;27.92;5.18;;;8.10;99.90;;;;;;5071373;28;20542;-71
2023/12/10 02:24:25;;;;;;;26.15;4.97;;;8.10;99.90;;;;;;5068231;28;20527;-71
2023/12/10 02:26:52;;;;;;;34.05;5.47;;;8.10;99.90;;;;;;5043071;28;20072;-70
2023/12/10 02:29:25;;;;;;;31.88;5.38;;;8.10;99.90;;;;;;5058153;28;20036;-71
2023/12/10 02:31:51;;;;;;;30.92;4.97;;;8.10;99.90;;;;;;5045370;28;20082;-70
2023/12/10 02:34:16;;;;;;;23.92;4.38;;;8.10;99.90;;;;;;5042191;28;20087;-70
2023/12/10 02:36:42;;;;;;;35.20;5.95;;;8.10;99.90;;;;;;5044450;28;20056;-70
2023/12/10 02:39:10;;;;;;;24.80;4.97;;;8.10;99.90;;;;;;5036443;28;20044;-70
2023/12/10 02:41:36;;;;;;;36.17;4.63;;;8.10;99.90;;;;;;5036332;28;20045;-70
2023/12/10 02:44:02;;;;;;;35.03;5.28;;;8.10;99.90;;;;;;5054309;28;20123;-71
2023/12/10 02:46:28;;;;;;;35.47;5.13;;;8.40;99.90;;;;;;5052378;28;20032;-71
2023/12/10 02:48:53;;;;;;;33.55;4.82;;;8.10;99.90;;;;;;5046180;28;20041;-70
2023/12/10 02:51:19;;;;;;;26.70;4.07;;;8.10;99.90;;;;;;5062011;28;20108;-70
2023/12/10 02:53:44;;;;;;;29.60;5.10;;;8.10;99.90;;;;;;5070991;28;20040;-71
2023/12/10 02:56:10;;;;;;;24.15;4.32;;;8.10;99.90;;;;;;5068511;28;20052;-70
2023/12/10 02:58:36;;;;;;;32.78;4.45;;;8.10;99.90;;;;;;5063062;28;20047;-71
2023/12/10 03:01:01;;;;;;;22.75;4.55;;;8.10;99.90;;;;;;5059434;28;20135;-70
2023/12/10 03:03:27;;;;;;;21.40;4.28;;;8.10;99.90;;;;;;5047223;28;20519;-71
2023/12/10 03:05:52;;;;;;;23.65;4.43;;;8.10;99.90;;;;;;5066428;28;20041;-72
2023/12/10 03:08:18;;;;;;;27.17;4.75;;;8.10;99.90;;;;;;5071216;28;20084;-71
2023/12/10 03:10:44;;;;;;;27.25;4.53;;;8.10;99.90;;;;;;5070261;28;20041;-70
2023/12/10 03:13:10;;;;;;;29.15;4.10;;;8.00;99.90;;;;;;5025425;28;20033;-71
2023/12/10 03:15:35;;;;;;;23.50;3.83;;;8.00;99.90;;;;;;5062785;28;20420;-71
2023/12/10 03:18:01;;;;;;;28.02;4.45;;;8.00;99.90;;;;;;5051184;28;20055;-72
2023/12/10 03:20:26;;;;;;;29.80;5.28;;;8.00;99.90;;;;;;5047522;28;20040;-71
2023/12/10 03:22:52;;;;;;;23.05;4.53;;;8.00;99.90;;;;;;5047882;28;20041;-71
2023/12/10 03:25:18;;;;;;;26.85;5.03;;;8.00;99.90;;;;;;5070252;28;20115;-71
2023/12/10 03:27:43;;;;;;;23.33;3.63;;;8.00;99.90;;;;;;5066829;28;20045;-70
2023/12/10 03:30:09;;;;;;;22.88;4.13;;;8.00;99.90;;;;;;5049552;28;20036;-71
2023/12/10 03:32:34;;;;;;;22.05;3.58;;;8.00;99.90;;;;;;5044124;28;20032;-71
2023/12/10 03:35:00;;;;;;;24.38;4.40;;;8.00;99.90;;;;;;5041462;28;20052;-71
2023/12/10 03:37:26;;;;;;;25.95;3.88;;;8.00;99.90;;;;;;5048845;28;20043;-71
2023/12/10 03:39:51;;;;;;;30.25;4.20;;;8.00;99.90;;;;;;5047401;28;20079;-71
2023/12/10 03:42:17;;;;;;;26.60;4.10;;;8.00;99.90;;;;;;5049603;28;20040;-70
2023/12/10 03:44:42;;;;;;;22.80;4.05;;;8.00;99.90;;;;;;5041513;28;20489;-71
2023/12/10 03:47:08;;;;;;;27.05;4.32;;;8.00;99.90;;;;;;5049534;28;20497;-71
2023/12/10 03:49:36;;;;;;;26.88;4.68;;;8.00;99.90;;;;;;5040950;28;20039;-72
2023/12/10 03:52:03;;;;;;;28.30;3.75;;;8.00;99.90;;;;;;5044130;28;20036;-71
2023/12/10 03:54:29;;;;;;;29.75;4.53;;;8.00;99.90;;;;;;5063069;28;20112;-71
2023/12/10 03:56:54;;;;;;;24.73;5.10;;;7.90;99.90;;;;;;5058100;28;20119;-70
2023/12/10 03:59:23;;;;;;;26.67;4.57;;;7.90;99.90;;;;;;5068148;28;20037;-70
2023/12/10 04:01:49;;;;;;;26.85;4.80;;;8.00;99.90;;;;;;5050338;28;20055;-71
2023/12/10 04:04:14;;;;;;;25.63;3.97;;;7.90;99.90;;;;;;5051388;28;20033;-72
2023/12/10 04:06:41;;;;;;;33.42;4.57;;;8.00;99.90;;;;;;5066042;28;20093;-71
2023/12/10 04:09:08;;;;;;;25.30;4.82;;;7.90;99.90;;;;;;5057528;28;20064;-71
2023/12/10 04:11:36;;;;;;;25.80;4.85;;;7.90;99.90;;;;;;5068838;28;20037;-72
2023/12/10 04:14:03;;;;;;;30.15;4.63;;;7.90;99.90;;;;;;5065073;28;20508;-71
2023/12/10 04:16:30;;;;;;;26.52;4.25;;;7.90;99.90;;;;;;5038088;28;20358;-71
2023/12/10 04:18:59;;;;;;;21.08;3.92;;;7.90;99.90;;;;;;5029249;28;20048;-70
2023/12/10 04:21:27;;;;;;;28.83;4.55;;;7.90;99.90;;;;;;5032122;28;20509;-70
2023/12/10 04:23:52;;;;;;;33.47;4.68;;;8.00;99.90;;;;;;5059125;28;20048;-71
2023/12/10 04:26:18;;;;;;;22.90;4.18;;;7.90;99.90;;;;;;5072961;28;20052;-71
2023/12/10 04:28:44;;;;;;;24.77;4.35;;;8.00;99.90;;;;;;5063003;28;20413;-71
2023/12/10 04:31:09;;;;;;;19.92;3.90;;;8.00;99.90;;;;;;5048917;28;20041;-71
2023/12/10 04:33:39;;;;;;;27.80;4.20;;;8.00;99.90;;;;;;5054207;28;20094;-71
2023/12/10 04:36:05;;;;;;;24.25;4.03;;;8.00;99.90;;;;;;5045643;28;20493;-70
2023/12/10 04:38:30;;;;;;;24.58;4.82;;;8.00;99.90;;;;;;5055188;28;20051;-71
2023/12/10 04:40:57;;;;;;;21.75;3.67;;;8.00;99.90;;;;;;5070956;28;20048;-70
2023/12/10 04:43:22;;;;;;;30.02;4.55;;;8.00;99.90;;;;;;5070403;28;20072;-72
2023/12/10 04:45:48;;;;;;;27.02;4.60;;;8.00;99.90;;;;;;5066112;28;20103;-71
2023/12/10 04:48:14;;;;;;;31.85;4.88;;;8.00;99.90;;;;;;5068681;28;20037;-71
2023/12/10 04:50:42;;;;;;;20.33;4.18;;;8.10;99.90;;;;;;5073291;28;20085;-71
2023/12/10 04:53:09;;;;;;;26.20;5.60;;;8.10;99.90;;;;;;5075721;28;20040;-72
2023/12/10 04:55:35;;;;;;;31.63;4.55;;;8.10;99.90;;;;;;5037101;28;20048;-70
2023/12/10 04:58:01;;;;;;;30.77;4.47;;;8.00;99.90;;;;;;5051848;28;20429;-70
2023/12/10 05:00:26;;;;;;;35.45;5.45;;;8.10;99.90;;;;;;5064117;28;20492;-70
2023/12/10 05:02:52;;;;;;;27.98;4.97;;;8.10;99.90;;;;;;5074274;28;20104;-71
2023/12/10 05:05:18;;;;;;;36.65;4.63;;;8.10;99.90;;;;;;5067964;28;20131;-71
2023/12/10 05:07:47;;;;;;;20.70;4.03;;;8.10;99.90;;;;;;5043769;28;20036;-71
2023/12/10 05:10:15;;;;;;;30.05;4.90;;;8.10;99.90;;;;;;5038415;28;20117;-71
2023/12/10 05:12:41;;;;;;;32.58;5.75;;;8.10;99.90;;;;;;5078662;22;20044;-73
2023/12/10 05:15:07;;;;;;;35.83;5.43;;;8.10;99.90;;;;;;5052399;28;20057;-73
2023/12/10 05:17:33;;;;;;;26.60;4.55;;;8.10;99.90;;;;;;5030411;28;20535;-74
2023/12/10 05:19:58;;;;;;;27.27;5.20;;;8.10;99.90;;;;;;5034458;28;20045;-73
2023/12/10 05:22:24;;;;;;;21.50;4.25;;;8.20;99.90;;;;;;5030961;28;20432;-74
2023/12/10 05:24:49;;;;;;;28.77;4.93;;;8.20;99.90;;;;;;5051862;28;20076;-73
2023/12/10 05:27:15;;;;;;;28.15;5.03;;;8.20;99.90;;;;;;5044308;28;20505;-73
2023/12/10 05:29:41;;;;;;;20.67;4.68;;;8.20;99.90;;;;;;5025025;28;20084;-73
2023/12/10 05:32:06;;;;;;;23.30;4.00;;;8.20;99.90;;;;;;5021857;28;20060;-74
2023/12/10 05:34:32;;;;;;;29.48;4.70;;;8.20;99.90;;;;;;5025715;28;20045;-74
2023/12/10 05:36:58;;;;;;;27.88;5.65;;;8.20;99.90;;;;;;5024832;28;20045;-74
2023/12/10 05:39:24;;;;;;;25.70;4.95;;;8.30;99.90;;;;;;5028368;28;20041;-74
2023/12/10 05:41:49;;;;;;;28.65;4.85;;;8.30;99.90;;;;;;5017576;28;20386;-73
2023/12/10 05:44:15;;;;;;;27.25;4.80;;;8.30;99.90;;;;;;5027399;28;20040;-73
2023/12/10 05:46:41;;;;;;;35.15;5.72;;;7.80;99.90;;;;;;5037035;28;20555;-73
2023/12/10 05:49:06;;;;;;;36.65;5.15;;;8.40;99.90;;;;;;5039087;28;20029;-73
2023/12/10 05:51:32;;;;;;;23.90;4.70;;;8.40;99.90;;;;;;5052093;28;20036;-74
2023/12/10 05:53:57;;;;;;;27.52;6.32;;;8.40;99.90;;;;;;5032821;28;20102;-73
2023/12/10 05:56:23;;;;;;;27.90;4.88;;;8.40;99.90;;;;;;5044023;28;20048;-74
2023/12/10 05:58:48;;;;;;;34.50;5.20;;;8.40;99.90;;;;;;5016936;28;20045;-73
2023/12/10 06:01:14;;;;;;;35.78;5.30;;;8.40;99.90;;;;;;5025930;28;20053;-74
2023/12/10 06:03:40;;;;;;;28.25;5.22;;;8.40;99.90;;;;;;5034871;28;20388;-73
2023/12/10 06:06:05;;;;;;;27.60;5.47;;;8.40;99.90;;;;;;5051717;28;20064;-74
2023/12/10 06:08:31;;;;;;;33.78;4.65;;;8.40;99.90;;;;;;5038166;28;20067;-74
2023/12/10 06:10:57;;;;;;;24.33;4.90;;;8.30;99.90;;;;;;5029925;28;20542;-74
2023/12/10 06:13:22;;;;;;;25.58;4.25;;;8.40;99.90;;;;;;5049257;28;20493;-73
2023/12/10 06:15:48;;;;;;;28.10;5.30;;;8.40;99.90;;;;;;5051326;28;20159;-73
2023/12/10 06:18:13;;;;;;;33.55;5.13;;;8.30;99.90;;;;;;5027107;28;20429;-74
2023/12/10 06:20:39;;;;;;;35.50;5.20;;;8.30;99.90;;;;;;5038047;28;20087;-74
2023/12/10 06:23:05;;;;;;;38.72;5.07;;;8.30;99.90;;;;;;5029378;28;20049;-73
2023/12/10 06:25:30;;;;;;;33.97;5.90;;;8.30;99.90;;;;;;5020843;28;20040;-74
2023/12/10 06:27:58;;;;;;;31.38;5.25;;;8.30;99.90;;;;;;5019573;28;20091;-74
2023/12/10 06:30:24;;;;;;;29.48;5.30;;;8.30;99.90;;;;;;5030225;28;20028;-75
2023/12/10 06:32:50;;;;;;;35.60;5.68;;;8.30;99.90;;;;;;5047125;28;20124;-74
2023/12/10 06:35:16;;;;;;;43.22;5.55;;;8.40;99.90;;;;;;5021893;28;20562;-74
2023/12/10 06:37:41;;;;;;;36.78;5.70;;;8.30;99.90;;;;;;5047510;28;20041;-74
2023/12/10 06:40:08;;;;;;;30.42;4.65;;;8.30;99.90;;;;;;5019483;28;20052;-74
2023/12/10 06:42:34;;;;;;;36.97;5.55;;;8.30;99.90;;;;;;5027979;28;20401;-74
2023/12/10 06:45:00;;;;;;;37.90;5.07;;;8.30;99.90;;;;;;5013632;28;20045;-74
2023/12/10 06:47:26;;;;;;;26.83;5.32;;;8.30;99.90;;;;;;5018977;28;20037;-74
2023/12/10 06:49:51;;;;;;;34.30;5.07;;;8.30;99.90;;;;;;5045635;28;20044;-74
2023/12/10 06:52:17;;;;;;;30.35;4.65;;;8.40;99.90;;;;;;5032867;28;20087;-74
2023/12/10 06:54:43;;;;;;;26.25;4.13;;;8.40;99.90;;;;;;5013238;28;20045;-74
2023/12/10 06:57:09;;;;;;;28.48;5.25;;;8.30;99.90;;;;;;5014945;28;20504;-74
2023/12/10 06:59:34;;;;;;;27.60;4.72;;;8.40;99.90;;;;;;5036630;28;20115;-74
2023/12/10 07:02:00;;;;;;;31.25;4.75;;;8.40;99.90;;;;;;5023909;28;20076;-74
2023/12/10 07:04:26;;;;;;;27.65;4.50;;;8.40;99.90;;;;;;5032646;28;20082;-74
2023/12/10 07:06:51;;;;;;;28.52;4.32;;;8.40;99.90;;;;;;5021694;28;20135;-74
2023/12/10 07:09:17;;;;;;;28.85;4.50;;;8.40;99.90;;;;;;5032145;28;20041;-74
2023/12/10 07:11:43;;;;;;;17.80;3.47;;;8.40;99.90;;;;;;5024871;28;20045;-74
2023/12/10 07:14:08;;;;;;;20.58;3.85;;;8.40;99.90;;;;;;5040263;28;20057;-74
2023/12/10 07:16:34;;;;;;;14.90;3.20;;;8.40;99.90;;;;;;5037404;28;20044;-73
2023/12/10 07:18:59;;;;;;;16.27;3.88;;;8.50;99.90;;;;;;5039913;28;20168;-73
2023/12/10 07:21:25;;;;;;;24.98;3.33;;;8.50;99.90;;;;;;5038331;28;20091;-74
2023/12/10 07:23:50;;;;;;;20.33;3.30;;;8.40;99.90;;;;;;5041376;28;20512;-75
2023/12/10 07:26:23;;;;;;;21.15;3.85;;;8.40;99.90;;;;;;5017690;28;20064;-74
2023/12/10 07:28:49;;;;;;;16.02;3.08;;;8.40;99.90;;;;;;5024540;28;20048;-74
2023/12/10 07:31:15;;;;;;;16.90;2.92;;;8.40;99.90;;;;;;5017510;28;20053;-74
2023/12/10 07:33:41;;;;;;;19.42;3.13;;;8.30;99.90;;;;;;5031658;28;20037;-74
2023/12/10 07:36:07;;;;;;;13.20;2.92;;;8.30;99.90;;;;;;5021771;28;20056;-74
2023/12/10 07:38:32;;;;;;;17.45;3.00;;;8.40;99.90;;;;;;5043166;28;20088;-74
2023/12/10 07:40:58;;;;;;;13.75;2.60;;;8.40;99.90;;;;;;5031884;28;20060;-74
2023/12/10 07:43:23;;;;;;;18.98;2.92;;;8.30;99.90;;;;;;5043625;28;20037;-74
2023/12/10 07:45:49;;;;;;;17.33;2.85;;;8.30;99.90;;;;;;5046280;28;20405;-74
2023/12/10 07:48:15;;;;;;;15.57;3.70;;;8.30;99.90;;;;;;5033169;28;20045;-74
2023/12/10 07:50:41;;;;;;;22.60;4.05;;;8.30;99.90;;;;;;5029166;28;20049;-74
2023/12/10 07:53:06;;;;;;;24.75;3.30;;;8.30;99.90;;;;;;5053810;28;20474;-75
2023/12/10 07:55:32;;;;;;;20.00;3.97;;;8.20;99.90;;;;;;5016172;28;20073;-74
2023/12/10 07:57:58;;;;;;;22.10;3.45;;;8.20;99.90;;;;;;5049335;28;20037;-74
2023/12/10 08:00:23;;;;;;;19.83;3.42;;;8.20;99.90;;;;;;5033044;28;20090;-74
2023/12/10 08:02:49;;;;;;;28.25;3.75;;;8.20;99.90;;;;;;5051341;28;20178;-73
2023/12/10 08:05:15;;;;;;;17.60;3.40;;;8.20;99.90;;;;;;5011146;28;20438;-74
2023/12/10 08:07:40;;;;;;;21.02;3.28;;;8.10;99.90;;;;;;5024225;28;20041;-74
2023/12/10 08:10:06;;;;;;;27.60;4.28;;;8.10;99.90;;;;;;5040915;28;20024;-74
2023/12/10 08:12:32;;;;;;;29.60;4.43;;;8.10;99.90;;;;;;5027444;28;20029;-74
2023/12/10 08:14:58;;;;;;;33.97;5.22;;;8.10;99.90;;;;;;5029237;28;20124;-74
2023/12/10 08:17:24;;;;;;;44.63;6.40;;;8.10;99.90;;;;;;5028343;28;20063;-74
2023/12/10 08:19:49;;;;;;;44.85;7.30;;;8.10;99.90;;;;;;5023977;28;20041;-75
2023/12/10 08:22:15;;;;;;;32.83;6.15;;;8.10;99.90;;;;;;5027593;28;20456;-76
2023/12/10 08:24:40;;;;;;;41.33;6.82;;;8.10;99.90;;;;;;5024673;28;20513;-75
2023/12/10 08:27:06;;;;;;;43.50;6.13;;;8.20;99.90;;;;;;5032713;28;20045;-77
2023/12/10 08:29:31;;;;;;;46.53;6.05;;;8.10;99.90;;;;;;5029363;28;20087;-73
2023/12/10 08:31:57;;;;;;;46.20;6.72;;;8.10;99.90;;;;;;5043116;28;20045;-74
2023/12/10 08:34:22;;;;;;;46.88;6.32;;;8.10;99.90;;;;;;5036866;28;20037;-73
2023/12/10 08:36:48;;;;;;;45.10;7.88;;;8.10;99.90;;;;;;5027800;28;20084;-74
2023/12/10 08:39:14;;;;;;;41.95;6.68;;;8.10;99.90;;;;;;5039971;28;20036;-74
2023/12/10 08:41:39;;;;;;;40.65;5.93;;;8.10;99.90;;;;;;5028772;28;20048;-74
2023/12/10 08:44:06;;;;;;;38.00;6.60;;;8.10;99.90;;;;;;5029011;28;20095;-76
2023/12/10 08:46:32;;;;;;;51.60;7.40;;;8.10;99.90;;;;;;5027040;28;20041;-74
2023/12/10 08:48:57;;;;;;;34.90;5.72;;;8.10;99.90;;;;;;5033084;28;20543;-74
2023/12/10 08:51:23;;;;;;;44.60;6.57;;;8.10;99.90;;;;;;5030181;28;20074;-74
2023/12/10 08:53:48;;;;;;;37.88;6.18;;;7.70;99.90;;;;;;5031009;28;20091;-74
2023/12/10 08:56:14;;;;;;;43.13;7.00;;;8.10;99.90;;;;;;5030089;28;20470;-75
2023/12/10 08:58:40;;;;;;;41.22;6.88;;;8.10;99.90;;;;;;5026079;28;20049;-74
2023/12/10 09:01:06;;;;;;;34.25;5.97;;;8.10;99.90;;;;;;5044628;28;20040;-75
2023/12/10 09:03:32;;;;;;;35.92;5.03;;;8.20;99.90;;;;;;5044847;28;20045;-75
2023/12/10 09:05:58;;;;;;;37.03;5.90;;;8.10;99.90;;;;;;5027012;28;20428;-75
2023/12/10 09:08:26;;;;;;;41.58;6.45;;;8.20;99.90;;;;;;5047599;28;20044;-75
2023/12/10 09:10:52;;;;;;;38.42;5.88;;;8.20;99.90;;;;;;5035266;28;20067;-74
2023/12/10 09:13:18;;;;;;;37.60;5.75;;;8.20;99.90;;;;;;5034262;28;20032;-75
2023/12/10 09:15:43;;;;;;;34.83;5.68;;;8.20;99.90;;;;;;5022939;28;20123;-75
2023/12/10 09:18:09;;;;;;;36.85;5.80;;;8.20;99.90;;;;;;5037867;28;20080;-75
2023/12/10 09:20:35;;;;;;;38.95;5.65;;;8.20;99.90;;;;;;5029142;28;20080;-75
2023/12/10 09:23:01;;;;;;;31.33;4.90;;;8.20;99.90;;;;;;5030702;28;20088;-75
2023/12/10 09:25:27;;;;;;;36.15;6.38;;;8.20;99.90;;;;;;5050223;28;20040;-74
2023/12/10 09:27:52;;;;;;;48.05;6.63;;;8.20;99.90;;;;;;5024510;28;20048;-75
2023/12/10 09:30:18;;;;;;;50.45;7.15;;;8.20;99.90;;;;;;5051714;28;20041;-74
2023/12/10 09:32:44;;;;;;;41.83;6.00;;;8.10;99.90;;;;;;5034498;28;20037;-74
2023/12/10 09:35:09;;;;;;;41.75;6.57;;;8.10;99.90;;;;;;5030631;28;20052;-75
2023/12/10 09:37:37;;;;;;;46.78;7.53;;;8.10;99.90;;;;;;5047081;28;20119;-76
2023/12/10 09:40:03;;;;;;;38.33;5.95;;;8.10;99.90;;;;;;5032668;28;20088;-74
2023/12/10 09:42:29;;;;;;;35.78;5.78;;;8.10;99.90;;;;;;5029851;28;20061;-74
2023/12/10 09:44:55;;;;;;;42.10;6.05;;;8.10;99.90;;;;;;5033800;28;20585;-75
2023/12/10 09:47:23;;;;;;;41.67;6.15;;;8.10;99.90;;;;;;5027790;28;20413;-75
2023/12/10 09:49:53;;;;;;;42.15;6.57;;;8.10;99.90;;;;;;5033291;28;20044;-75
2023/12/10 09:52:19;;;;;;;39.13;6.80;;;8.20;99.90;;;;;;5029834;28;20048;-75
2023/12/10 09:54:45;;;;;;;35.97;5.13;;;8.20;99.90;;;;;;5012753;28;20041;-74
2023/12/10 09:57:13;;;;;;;31.95;6.18;;;8.20;99.90;;;;;;5047475;28;20045;-75
2023/12/10 09:59:38;;;;;;;35.85;5.50;;;8.20;99.90;;;;;;5027706;28;20059;-75
2023/12/10 10:02:05;;;;;;;36.30;5.07;;;8.30;99.90;;;;;;5023027;28;20124;-76
2023/12/10 10:04:31;;;;;;;37.60;5.97;;;8.30;99.90;;;;;;5022612;28;20055;-75
2023/12/10 10:06:57;;;;;;;36.03;6.10;;;8.30;99.90;;;;;;5035298;28;20045;-75
2023/12/10 10:09:23;;;;;;;41.28;5.18;;;8.40;99.90;;;;;;5022675;28;20045;-74
2023/12/10 10:11:50;;;;;;;35.35;5.55;;;8.40;99.90;;;;;;5016328;28;20504;-76
2023/12/10 10:14:17;;;;;;;33.72;6.32;;;8.40;99.90;;;;;;5032607;28;20075;-75
2023/12/10 10:16:49;;;;;;;39.00;5.60;;;8.40;99.90;;;;;;5042845;28;20412;-75
2023/12/10 10:19:15;;;;;;;32.42;5.85;;;8.40;99.90;;;;;;5051523;28;20395;-75
2023/12/10 10:21:42;;;;;;;41.72;5.15;;;8.40;99.90;;;;;;5047899;28;20080;-75
2023/12/10 10:24:08;;;;;;;38.13;5.72;;;8.40;99.90;;;;;;5025363;28;20036;-76
2023/12/10 10:26:35;;;;;;;32.70;6.15;;;8.40;99.90;;;;;;5029477;28;20048;-74
2023/12/10 10:29:03;;;;;;;40.40;6.50;;;8.40;99.90;;;;;;5017676;28;20095;-75
2023/12/10 10:31:29;;;;;;;35.33;5.78;;;8.40;99.90;;;;;;5042668;28;20056;-76
2023/12/10 10:33:57;;;;;;;28.33;4.68;;;8.40;99.90;;;;;;5027395;28;20033;-75
2023/12/10 10:36:24;;;;;;;32.05;4.80;;;8.40;99.90;;;;;;5042321;28;20051;-75
2023/12/10 10:38:52;;;;;;;26.92;5.22;;;8.40;99.90;;;;;;5025900;28;20524;-74
2023/12/10 10:41:18;;;;;;;30.15;4.70;;;8.40;99.90;;;;;;5033341;28;20076;-76
2023/12/10 10:43:44;;;;;;;32.45;5.20;;;8.40;99.90;;;;;;5027651;28;20045;-76
2023/12/10 10:46:11;;;;;;;38.28;5.70;;;8.40;99.90;;;;;;5024410;28;20123;-75
2023/12/10 10:48:38;;;;;;;36.67;6.90;;;8.40;99.90;;;;;;5032908;28;20037;-75
2023/12/10 10:51:05;;;;;;;30.13;5.45;;;8.50;99.90;;;;;;5025280;28;20045;-75
2023/12/10 10:53:34;;;;;;;37.00;5.28;;;8.50;99.90;;;;;;5040482;28;20073;-75
2023/12/10 10:56:01;;;;;;;35.15;5.55;;;8.50;99.90;;;;;;5031664;28;20053;-75
2023/12/10 10:58:29;;;;;;;27.83;4.70;;;8.50;99.90;;;;;;5043415;28;20045;-75
2023/12/10 11:00:55;;;;;;;30.58;5.15;;;8.50;99.90;;;;;;5024925;28;20052;-75
2023/12/10 11:03:27;;;;;;;29.90;4.60;;;8.50;99.90;;;;;;5030628;28;20120;-75
2023/12/10 11:06:00;;;;;;;31.52;4.43;;;8.60;99.90;;;;;;5045620;28;20076;-77
2023/12/10 11:08:26;;;;;;;34.03;5.32;;;8.60;99.90;;;;;;5025219;28;20168;-75
2023/12/10 11:10:58;;;;;;;35.88;5.07;;;8.60;99.90;;;;;;5030114;28;20077;-75
2023/12/10 11:13:44;;;;;;;31.85;4.95;;;8.60;99.90;;;;;;5058511;22;20049;-73
2023/12/10 11:16:11;;;;;;;26.88;5.00;;;8.60;99.90;;;;;;5014583;28;20049;-73
2023/12/10 11:19:00;;;;;;;30.70;5.03;;;8.70;99.90;;;;;;5020470;28;20055;-73
2023/12/10 11:21:25;;;;;;;32.40;4.95;;;9.20;99.90;;;;;;5037913;28;20052;-73
2023/12/10 11:23:51;;;;;;;38.90;5.10;;;8.70;99.90;;;;;;5050861;28;20501;-72
2023/12/10 11:26:17;;;;;;;22.50;4.47;;;8.60;99.90;;;;;;5040240;28;20488;-74
2023/12/10 11:28:43;;;;;;;35.22;4.85;;;8.60;99.90;;;;;;5046524;28;20132;-72
2023/12/10 11:31:10;;;;;;;26.33;4.65;;;8.70;99.90;;;;;;5025294;28;20032;-73
2023/12/10 11:33:40;;;;;;;28.08;4.38;;;8.70;99.90;;;;;;5013933;28;20032;-72
2023/12/10 11:36:07;;;;;;;29.98;4.25;;;8.70;99.90;;;;;;5040849;28;20120;-72
2023/12/10 11:38:32;;;;;;;34.38;5.00;;;8.70;99.90;;;;;;5048855;28;20076;-72
2023/12/10 11:40:58;;;;;;;32.95;4.90;;;8.70;99.90;;;;;;5047518;28;20094;-72
2023/12/10 11:43:25;;;;;;;28.80;5.65;;;8.70;99.90;;;;;;5027157;28;20040;-72
2023/12/10 11:45:53;;;;;;;40.15;5.63;;;8.70;99.90;;;;;;5034850;28;20663;-72
2023/12/10 11:48:19;;;;;;;36.08;4.28;;;8.70;99.90;;;;;;5051623;28;20097;-72
2023/12/10 11:50:46;;;;;;;25.35;4.60;;;8.70;99.90;;;;;;5053409;28;20390;-72
2023/12/10 11:53:12;;;;;;;29.90;4.43;;;8.70;99.90;;;;;;5051496;28;20052;-72
2023/12/10 11:55:37;;;;;;;22.27;4.55;;;8.70;99.90;;;;;;5036138;28;20045;-72
2023/12/10 11:58:03;;;;;;;33.67;5.07;;;8.70;99.90;;;;;;5055487;28;20244;-72
2023/12/10 12:00:29;;;;;;;23.65;5.63;;;8.70;99.90;;;;;;5036895;28;20036;-72
2023/12/10 12:02:54;;;;;;;29.95;4.43;;;8.70;99.90;;;;;;5051538;28;20044;-72
2023/12/10 12:05:20;;;;;;;30.38;4.38;;;8.70;99.90;;;;;;5051276;28;20395;-72
2023/12/10 12:07:49;;;;;;;22.27;4.72;;;8.70;99.90;;;;;;5034928;28;20040;-72
2023/12/10 12:10:17;;;;;;;28.50;3.95;;;8.60;99.90;;;;;;5043530;28;20166;-73
2023/12/10 12:12:44;;;;;;;26.77;4.60;;;8.60;99.90;;;;;;5018697;28;20588;-72
2023/12/10 12:15:11;;;;;;;27.08;4.00;;;8.60;99.90;;;;;;5028218;28;20042;-72
2023/12/10 12:17:37;;;;;;;26.23;4.38;;;8.60;99.90;;;;;;5042217;28;20494;-72
2023/12/10 12:20:22;;;;;;;22.55;3.85;;;8.60;99.90;;;;;;5028163;28;20124;-72
2023/12/10 12:22:49;;;;;;;25.08;4.22;;;8.60;99.90;;;;;;5043290;28;20049;-72
2023/12/10 12:25:18;;;;;;;21.17;3.75;;;8.60;99.90;;;;;;5023569;28;20041;-72
2023/12/10 12:27:44;;;;;;;25.63;4.00;;;8.60;99.90;;;;;;5058300;28;20052;-73
2023/12/10 12:30:10;;;;;;;23.88;4.03;;;8.60;99.90;;;;;;5045332;28;20063;-73
2023/12/10 12:32:36;;;;;;;26.35;4.20;;;8.60;99.90;;;;;;5034820;28;20041;-73
2023/12/10 12:35:02;;;;;;;19.15;3.72;;;8.60;99.90;;;;;;5036365;28;20029;-73
2023/12/10 12:37:27;;;;;;;24.05;3.58;;;8.60;99.90;;;;;;5037489;28;20064;-73
2023/12/10 12:39:55;;;;;;;17.33;3.50;;;8.60;99.90;;;;;;5033167;28;20119;-72
2023/12/10 12:42:22;;;;;;;24.90;3.63;;;8.70;99.90;;;;;;5049985;28;20048;-72
2023/12/10 12:44:48;;;;;;;20.02;3.38;;;8.70;99.90;;;;;;5022990;28;20045;-72